Time;durP1;ratioP1;P1;durP2;ratioP2;P2;SDS_P1;SDS_P2;PMS_P1;PMS_P2;Temp;Humidity;BMP_temperature;BMP_pressure;BME280_temperature;BME280_humidity;BME280_pressure;Samples;Min_cycle;Max_cycle;Signal;HPM_P1;HPM_P2
2023/10/13 00:00:34;;;;;;;3.53;1.88;;;14.20;67.00;;;;;;5014044;28;20038;-70
2023/10/13 00:03:02;;;;;;;2.00;0.88;;;14.20;67.20;;;;;;5016017;28;20091;-69
2023/10/13 00:05:30;;;;;;;3.97;2.47;;;14.20;67.60;;;;;;5014941;28;20431;-69
2023/10/13 00:08:17;;;;;;;1.25;0.60;;;14.20;67.30;;;;;;5015682;28;20127;-70
2023/10/13 00:10:43;;;;;;;2.78;1.27;;;14.10;67.40;;;;;;5031836;28;20053;-70
2023/10/13 00:13:12;;;;;;;;;;;14.10;67.80;;;;;;5015911;28;20038;-69
2023/10/13 00:15:57;;;;;;;2.10;1.38;;;14.10;67.70;;;;;;5032443;28;20346;-69
2023/10/13 00:18:43;;;;;;;2.15;1.02;;;14.00;67.40;;;;;;5032985;28;20381;-69
2023/10/13 00:23:55;;;;;;;2.70;1.52;;;14.00;67.90;;;;;;5017812;28;20088;-69
2023/10/13 00:26:27;;;;;;;2.35;1.33;;;13.90;68.00;;;;;;5032301;28;20034;-69
2023/10/13 00:29:16;;;;;;;1.75;1.02;;;13.90;68.00;;;;;;5032693;28;20049;-69
2023/10/13 00:31:43;;;;;;;3.33;2.17;;;13.90;68.00;;;;;;5016784;28;20040;-69
2023/10/13 00:34:28;;;;;;;1.73;1.08;;;13.90;68.20;;;;;;5015003;28;20037;-69
2023/10/13 00:39:45;;;;;;;1.02;0.82;;;14.00;68.40;;;;;;5032987;28;20114;-70
2023/10/13 00:42:23;;;;;;;4.93;1.75;;;14.00;68.20;;;;;;5031382;28;20069;-69
2023/10/13 00:44:50;;;;;;;5.28;1.65;;;14.00;68.50;;;;;;5016524;28;20037;-70
2023/10/13 00:47:37;;;;;;;1.75;1.30;;;14.00;68.60;;;;;;5014406;28;20052;-69
2023/10/13 00:50:05;;;;;;;1.85;0.98;;;14.10;68.70;;;;;;5032302;28;20072;-70
2023/10/13 00:52:34;;;;;;;2.05;1.50;;;14.10;68.50;;;;;;5014701;28;20029;-69
2023/10/13 00:55:01;;;;;;;12.35;1.10;;;14.00;68.20;;;;;;5015108;28;20041;-69
2023/10/13 00:57:28;;;;;;;1.00;0.60;;;14.00;68.10;;;;;;4998077;28;20497;-69
2023/10/13 01:00:12;;;;;;;2.90;2.03;;;14.00;68.50;;;;;;5032594;28;20049;-69
2023/10/13 01:02:38;;;;;;;2.40;1.20;;;14.00;68.50;;;;;;5014273;28;20072;-70
2023/10/13 01:05:09;;;;;;;1.67;1.17;;;14.00;68.90;;;;;;5014546;28;20037;-70
2023/10/13 01:07:39;;;;;;;2.47;1.63;;;14.10;68.60;;;;;;5015611;28;20037;-69
2023/10/13 01:10:14;;;;;;;2.05;1.23;;;14.10;68.50;;;;;;5014320;28;20072;-69
2023/10/13 01:15:29;;;;;;;3.30;1.50;;;14.10;68.20;;;;;;5021153;28;20038;-69
2023/10/13 01:18:16;;;;;;;1.67;0.85;;;14.20;68.70;;;;;;5018908;28;20037;-70
2023/10/13 01:20:52;;;;;;;0.73;0.65;;;14.20;68.60;;;;;;5018599;28;20112;-70
2023/10/13 01:23:18;;;;;;;2.35;1.33;;;14.20;68.70;;;;;;5035973;28;20064;-70
2023/10/13 01:25:45;;;;;;;;;;;14.20;68.20;;;;;;5035950;28;20076;-69
2023/10/13 01:28:18;;;;;;;2.60;1.00;;;14.10;69.00;;;;;;5035006;28;20329;-69
2023/10/13 01:30:49;;;;;;;4.57;1.95;;;14.10;69.00;;;;;;5017794;28;20042;-69
2023/10/13 01:33:34;;;;;;;1.75;1.10;;;14.10;68.40;;;;;;5019034;28;20042;-69
2023/10/13 01:36:06;;;;;;;4.10;1.70;;;14.20;69.20;;;;;;5017564;28;20060;-69
2023/10/13 01:38:33;;;;;;;0.82;0.80;;;14.20;69.30;;;;;;5002733;28;20124;-69
2023/10/13 01:40:59;;;;;;;2.78;1.15;;;14.20;69.80;;;;;;5017238;28;20494;-69
2023/10/13 01:43:25;;;;;;;4.15;1.95;;;14.20;70.00;;;;;;5035911;28;20049;-69
2023/10/13 01:45:51;;;;;;;2.33;1.45;;;14.30;69.90;;;;;;5017395;28;20062;-69
2023/10/13 01:48:18;;;;;;;0.98;0.80;;;14.30;70.20;;;;;;5035958;28;20040;-69
2023/10/13 01:50:55;;;;;;;4.32;2.03;;;14.30;70.20;;;;;;5016919;28;20442;-69
2023/10/13 01:53:22;;;;;;;3.67;2.10;;;14.30;70.40;;;;;;5019174;28;20033;-69
2023/10/13 01:55:50;;;;;;;3.25;1.63;;;14.40;70.40;;;;;;5017446;28;20025;-69
2023/10/13 01:58:16;;;;;;;2.28;1.83;;;14.40;70.60;;;;;;5018178;28;20057;-69
2023/10/13 02:00:47;;;;;;;4.15;2.83;;;14.40;70.70;;;;;;5034086;28;20380;-69
2023/10/13 02:03:17;;;;;;;4.60;1.08;;;14.40;70.60;;;;;;5017797;28;20045;-69
2023/10/13 02:06:04;;;;;;;4.97;1.40;;;14.40;69.90;;;;;;5017535;28;20419;-69
2023/10/13 02:08:30;;;;;;;;;;;14.40;70.80;;;;;;5035922;28;20037;-69
2023/10/13 02:11:01;;;;;;;3.35;1.60;;;14.40;70.20;;;;;;5032910;28;20024;-69
2023/10/13 02:13:28;;;;;;;3.63;1.50;;;14.30;71.00;;;;;;5035109;28;20514;-69
2023/10/13 02:15:57;;;;;;;2.85;1.33;;;14.30;70.70;;;;;;5034734;28;20141;-69
2023/10/13 02:18:27;;;;;;;3.08;1.60;;;14.30;71.40;;;;;;5035382;28;20040;-69
2023/10/13 02:20:55;;;;;;;4.18;1.85;;;14.30;71.60;;;;;;5016766;28;20554;-69
2023/10/13 02:23:22;;;;;;;2.53;1.58;;;14.30;71.80;;;;;;5007964;28;20487;-69
2023/10/13 02:25:52;;;;;;;2.53;0.90;;;14.30;72.00;;;;;;4997155;28;20041;-69
2023/10/13 02:28:21;;;;;;;3.30;1.23;;;14.30;72.20;;;;;;5015337;28;20034;-69
2023/10/13 02:30:53;;;;;;;5.15;3.03;;;14.30;72.20;;;;;;5013719;28;20026;-69
2023/10/13 02:33:25;;;;;;;2.45;1.52;;;14.30;72.40;;;;;;5015177;28;20037;-69
2023/10/13 02:35:53;;;;;;;3.60;2.00;;;14.30;71.80;;;;;;4998112;28;20068;-69
2023/10/13 02:41:28;;;;;;;5.50;2.45;;;14.20;72.40;;;;;;4998859;28;20066;-69
2023/10/13 02:43:56;;;;;;;1.38;1.27;;;14.20;72.60;;;;;;4981820;28;20475;-69
2023/10/13 02:46:22;;;;;;;2.00;1.40;;;14.20;72.10;;;;;;4996874;28;20076;-68
2023/10/13 02:48:53;;;;;;;1.25;0.90;;;14.10;72.00;;;;;;4997103;28;20434;-69
2023/10/13 02:51:25;;;;;;;1.20;0.98;;;14.10;72.20;;;;;;4996781;28;20462;-68
2023/10/13 02:53:52;;;;;;;3.20;1.98;;;14.10;72.10;;;;;;4998085;28;20046;-69
2023/10/13 02:59:08;;;;;;;1.58;1.23;;;14.10;71.80;;;;;;5014963;28;20084;-69
2023/10/13 03:01:35;;;;;;;2.13;1.83;;;14.10;71.80;;;;;;5013330;28;20060;-69
2023/10/13 03:04:25;;;;;;;2.03;0.85;;;14.00;72.20;;;;;;5014472;28;20040;-68
2023/10/13 03:06:51;;;;;;;2.55;1.92;;;14.10;72.80;;;;;;5013919;28;20451;-69
2023/10/13 03:09:18;;;;;;;1.95;1.80;;;14.10;72.90;;;;;;4996681;28;20029;-68
2023/10/13 03:11:49;;;;;;;4.43;1.83;;;14.00;73.10;;;;;;5013335;28;20041;-68
2023/10/13 03:14:35;;;;;;;1.75;1.08;;;14.00;73.30;;;;;;4997059;28;20069;-68
2023/10/13 03:17:05;;;;;;;1.55;1.15;;;14.00;73.30;;;;;;4998484;28;20419;-68
2023/10/13 03:19:36;;;;;;;2.75;1.95;;;14.00;73.40;;;;;;4997288;28;20073;-68
2023/10/13 03:22:30;;;;;;;1.35;1.17;;;14.00;73.40;;;;;;5013203;28;20037;-68
2023/10/13 03:25:04;;;;;;;1.55;0.85;;;14.00;73.80;;;;;;5034068;28;20092;-68
2023/10/13 03:30:15;;;;;;;3.97;1.15;;;14.00;72.90;;;;;;5033005;28;20076;-69
2023/10/13 03:32:48;;;;;;;2.83;1.77;;;13.90;73.20;;;;;;5033533;28;20037;-68
2023/10/13 03:35:24;;;;;;;2.60;1.23;;;13.80;72.80;;;;;;5015903;28;20033;-68
2023/10/13 03:38:19;;;;;;;2.40;1.50;;;13.80;73.10;;;;;;5017138;28;20030;-68
2023/10/13 03:40:56;;;;;;;2.50;1.75;;;13.70;72.90;;;;;;5016129;28;20452;-68
2023/10/13 03:43:23;;;;;;;5.30;1.77;;;13.70;72.80;;;;;;5017303;28;20033;-68
2023/10/13 03:46:08;;;;;;;1.75;1.23;;;13.70;72.80;;;;;;5032829;28;20037;-68
2023/10/13 03:48:52;;;;;;;2.00;1.45;;;13.70;72.80;;;;;;5018330;28;20061;-69
2023/10/13 03:51:19;;;;;;;2.08;1.23;;;13.70;73.00;;;;;;5017181;28;20041;-68
2023/10/13 04:01:48;;;;;;;2.03;1.17;;;13.70;73.10;;;;;;5032032;28;20633;-68
2023/10/13 04:04:29;;;;;;;1.73;1.13;;;13.70;73.30;;;;;;5015571;28;20505;-68
2023/10/13 04:17:40;;;;;;;7.40;1.65;;;13.70;73.70;;;;;;5032734;28;20048;-68
2023/10/13 04:33:48;;;;;;;2.30;0.88;;;13.60;73.80;;;;;;5013073;28;20077;-69
2023/10/13 04:41:57;;;;;;;2.83;1.67;;;13.60;73.50;;;;;;4995623;28;20116;-68
2023/10/13 04:44:48;;;;;;;3.08;1.58;;;13.60;73.20;;;;;;4998835;28;20088;-68
2023/10/13 04:50:01;;;;;;;1.65;1.27;;;13.40;73.20;;;;;;5013289;28;20419;-68
2023/10/13 04:52:45;;;;;;;2.70;1.73;;;13.40;73.20;;;;;;5011688;28;20490;-68
2023/10/13 04:55:32;;;;;;;3.50;1.88;;;13.40;73.10;;;;;;5012302;28;20042;-68
2023/10/13 05:44:33;;;;;;;1.85;0.95;;;13.10;73.10;;;;;;5012260;28;20052;-69
2023/10/13 06:28:53;;;;;;;2.65;2.08;;;13.60;72.90;;;;;;4999731;28;20044;-70
2023/10/13 06:31:22;;;;;;;2.70;1.83;;;13.70;73.00;;;;;;4996313;28;20506;-70
2023/10/13 06:33:48;;;;;;;1.85;1.13;;;13.80;73.00;;;;;;4997748;28;20057;-70
2023/10/13 06:36:17;;;;;;;2.97;2.25;;;13.80;72.30;;;;;;5014561;28;20430;-70
2023/10/13 06:38:43;;;;;;;2.13;1.17;;;13.90;73.20;;;;;;4997632;28;20045;-70
2023/10/13 06:41:19;;;;;;;;;;;13.90;72.60;;;;;;4996899;28;20045;-70
2023/10/13 06:43:45;;;;;;;3.55;1.92;;;14.00;72.30;;;;;;5015200;28;20027;-69
2023/10/13 06:46:23;;;;;;;;;;;14.00;72.50;;;;;;5014961;28;20390;-68
2023/10/13 06:48:53;;;;;;;3.90;1.50;;;14.10;72.90;;;;;;4998628;28;19925;-69
2023/10/13 06:51:25;;;;;;;2.03;1.13;;;14.10;72.30;;;;;;5013649;28;20125;-68
2023/10/13 06:53:56;;;;;;;2.92;1.48;;;14.20;72.90;;;;;;5015167;28;20042;-69
2023/10/13 06:56:27;;;;;;;2.95;1.83;;;14.30;72.90;;;;;;4994989;28;20076;-68
2023/10/13 07:01:40;;;;;;;4.43;1.58;;;14.50;72.60;;;;;;5017188;28;20041;-68
2023/10/13 07:04:14;;;;;;;2.28;1.13;;;14.60;72.40;;;;;;5032249;28;20038;-68
2023/10/13 07:09:58;;;;;;;2.42;0.77;;;14.90;72.20;;;;;;4979628;28;20050;-68
2023/10/13 07:12:27;;;;;;;0.73;0.63;;;15.00;71.80;;;;;;4996869;28;20041;-69
2023/10/13 07:17:40;;;;;;;1.45;0.88;;;15.10;71.60;;;;;;5019369;28;20077;-69
2023/10/13 07:20:23;;;;;;;0.75;0.60;;;15.30;71.50;;;;;;5021161;28;20042;-69
2023/10/13 07:23:11;;;;;;;1.95;1.10;;;15.40;71.20;;;;;;5002086;28;20061;-69
2023/10/13 07:25:40;;;;;;;1.33;1.23;;;15.50;71.20;;;;;;5019114;28;20034;-68
2023/10/13 07:33:36;;;;;;;1.67;0.77;;;15.80;71.50;;;;;;5033402;28;20305;-68
2023/10/13 07:36:15;;;;;;;0.57;0.50;;;15.90;71.70;;;;;;5032944;28;20028;-68
2023/10/13 07:41:32;;;;;;;0.82;0.55;;;16.00;71.10;;;;;;5032012;28;20051;-68
2023/10/13 07:43:59;;;;;;;1.83;0.88;;;16.20;72.10;;;;;;5015940;28;20037;-68
2023/10/13 07:46:31;;;;;;;1.13;0.50;;;16.30;72.50;;;;;;5014330;28;20033;-68
2023/10/13 07:54:26;;;;;;;1.17;0.90;;;17.00;72.10;;;;;;5052658;28;20048;-68
2023/10/13 07:56:54;;;;;;;1.75;1.48;;;18.50;67.50;;;;;;5052784;28;20413;-68
2023/10/13 07:59:24;;;;;;;2.60;1.35;;;20.00;63.40;;;;;;5038725;28;20038;-69
2023/10/13 08:04:42;;;;;;;1.17;0.75;;;22.20;57.60;;;;;;5032444;28;20095;-69
2023/10/13 08:07:14;;;;;;;3.72;2.00;;;23.40;55.20;;;;;;5032311;28;20034;-69
2023/10/13 08:09:41;;;;;;;1.60;1.38;;;24.20;52.70;;;;;;5013946;28;20418;-68
2023/10/13 08:15:12;;;;;;;1.25;0.82;;;25.70;47.80;;;;;;5031984;28;20048;-69
2023/10/13 08:17:38;;;;;;;1.55;1.05;;;26.40;46.40;;;;;;5033182;28;20377;-69
2023/10/13 08:20:12;;;;;;;;;;;27.30;44.20;;;;;;5031820;28;20508;-69
2023/10/13 08:22:39;;;;;;;1.65;0.80;;;28.00;42.60;;;;;;5032447;28;19920;-69
2023/10/13 08:25:24;;;;;;;1.35;0.75;;;28.70;39.90;;;;;;5032519;28;20029;-69
2023/10/13 08:30:51;;;;;;;1.77;1.38;;;30.20;37.00;;;;;;5031449;28;20033;-70
2023/10/13 08:33:18;;;;;;;2.97;2.33;;;30.90;34.80;;;;;;5031473;28;20038;-70
2023/10/13 08:38:43;;;;;;;;;;;32.00;32.60;;;;;;5018878;28;20052;-68
2023/10/13 08:43:52;;;;;;;1.08;0.98;;;32.90;30.00;;;;;;5015038;28;20033;-70
2023/10/13 08:46:29;;;;;;;2.92;1.60;;;33.10;29.90;;;;;;5031710;28;20371;-70
2023/10/13 08:49:15;;;;;;;2.83;0.90;;;33.30;29.00;;;;;;5016354;28;20044;-70
2023/10/13 08:52:05;;;;;;;2.20;1.23;;;33.80;28.50;;;;;;5031464;28;20042;-70
2023/10/13 08:54:38;;;;;;;0.82;0.80;;;34.40;27.70;;;;;;5018039;28;20378;-70
2023/10/13 08:57:19;;;;;;;2.28;1.27;;;34.70;27.10;;;;;;4998282;28;20147;-70
2023/10/13 08:59:53;;;;;;;2.08;1.63;;;35.00;27.00;;;;;;4999204;28;20042;-70
2023/10/13 09:06:00;;;;;;;2.00;1.02;;;35.30;26.10;;;;;;5012058;28;20056;-70
2023/10/13 09:08:35;;;;;;;1.70;0.93;;;33.70;27.40;;;;;;5007039;28;20033;-70
2023/10/13 09:11:12;;;;;;;3.20;2.38;;;33.00;28.60;;;;;;5030083;28;20066;-70
2023/10/13 09:13:44;;;;;;;0.60;0.60;;;32.30;29.40;;;;;;5015820;28;20034;-70
2023/10/13 09:19:04;;;;;;;;;;;30.40;32.60;;;;;;5018057;28;20048;-70
2023/10/13 09:21:58;;;;;;;1.70;1.60;;;30.00;33.50;;;;;;5029083;28;19920;-70
2023/10/13 09:24:31;;;;;;;1.33;0.88;;;29.70;33.40;;;;;;5032146;28;20060;-70
2023/10/13 09:27:02;;;;;;;2.95;1.15;;;29.20;34.70;;;;;;5014848;28;20479;-70
2023/10/13 09:29:29;;;;;;;2.33;1.45;;;28.60;35.50;;;;;;5003231;28;20069;-70
2023/10/13 09:32:15;;;;;;;1.25;1.08;;;28.20;37.20;;;;;;4978166;28;20038;-70
2023/10/13 09:34:44;;;;;;;0.88;0.65;;;27.80;37.30;;;;;;5005727;28;20103;-70
2023/10/13 09:37:13;;;;;;;1.35;0.85;;;27.60;37.90;;;;;;5035456;28;20459;-70
2023/10/13 09:39:52;;;;;;;11.32;1.17;;;27.20;38.70;;;;;;5018189;28;20033;-70
2023/10/13 09:42:18;;;;;;;1.15;0.85;;;27.00;39.80;;;;;;5033604;28;20045;-70
2023/10/13 09:44:58;;;;;;;1.77;0.95;;;26.80;40.10;;;;;;5021533;28;20076;-70
2023/10/13 09:47:30;;;;;;;3.65;1.70;;;26.50;40.80;;;;;;5019202;28;20044;-70
2023/10/13 09:52:46;;;;;;;1.63;1.02;;;26.20;42.30;;;;;;5034212;28;20050;-70
2023/10/13 09:55:39;;;;;;;2.30;1.50;;;26.20;42.80;;;;;;5017272;28;20060;-70
2023/10/13 09:58:13;;;;;;;2.58;1.40;;;26.00;42.80;;;;;;5034510;28;20025;-70
2023/10/13 10:01:07;;;;;;;1.40;0.73;;;26.10;43.00;;;;;;5033061;28;20521;-70
2023/10/13 10:03:50;;;;;;;2.40;1.48;;;27.00;41.30;;;;;;5020831;28;20128;-70
2023/10/13 10:06:30;;;;;;;2.53;1.25;;;26.70;41.20;;;;;;5015542;28;20486;-70
2023/10/13 10:09:21;;;;;;;4.47;1.45;;;26.40;41.90;;;;;;5017594;28;20059;-70
2023/10/13 10:12:25;;;;;;;3.33;1.50;;;26.20;42.50;;;;;;4996399;28;20052;-70
2023/10/13 10:15:35;;;;;;;2.17;1.10;;;26.10;43.10;;;;;;5031456;28;20036;-68
2023/10/13 10:18:03;;;;;;;3.42;1.20;;;26.10;44.20;;;;;;5027038;28;20391;-70
2023/10/13 10:20:51;;;;;;;1.67;1.52;;;25.90;43.60;;;;;;5023762;28;20044;-70
2023/10/13 10:23:39;;;;;;;3.28;1.67;;;26.00;43.60;;;;;;5016896;28;20119;-70
2023/10/13 10:26:25;;;;;;;5.60;2.15;;;26.10;44.00;;;;;;5034133;28;20401;-70
2023/10/13 10:28:51;;;;;;;2.55;1.17;;;26.10;44.20;;;;;;5035346;28;20041;-70
2023/10/13 10:31:19;;;;;;;2.40;1.48;;;26.10;44.70;;;;;;5033981;28;20037;-70
2023/10/13 10:36:32;;;;;;;3.58;2.67;;;27.00;42.20;;;;;;5019680;28;20041;-70
2023/10/13 10:39:04;;;;;;;3.63;2.03;;;27.00;41.50;;;;;;5016453;28;20376;-70
2023/10/13 10:44:33;;;;;;;1.17;0.70;;;26.60;43.30;;;;;;5017393;28;20454;-70
2023/10/13 10:47:30;;;;;;;2.13;1.50;;;26.60;42.80;;;;;;5034083;28;20033;-70
2023/10/13 10:50:00;;;;;;;3.50;2.03;;;26.70;43.00;;;;;;5015113;28;20088;-70
2023/10/13 10:52:34;;;;;;;1.77;1.60;;;26.70;42.90;;;;;;5032456;28;20332;-68
2023/10/13 10:55:00;;;;;;;4.85;2.53;;;26.80;42.30;;;;;;5019644;28;20476;-68
2023/10/13 10:57:29;;;;;;;1.02;0.80;;;26.80;42.10;;;;;;5014323;28;20092;-71
2023/10/13 11:00:14;;;;;;;2.00;1.02;;;27.00;42.10;;;;;;5013367;28;20092;-68
2023/10/13 11:02:41;;;;;;;1.55;1.33;;;26.90;40.80;;;;;;4999008;28;20041;-70
2023/10/13 11:05:09;;;;;;;2.35;1.45;;;26.80;40.00;;;;;;5012764;28;20030;-68
2023/10/13 11:07:36;;;;;;;3.28;1.23;;;26.80;39.10;;;;;;4997063;28;20600;-68
2023/10/13 11:10:27;;;;;;;2.65;1.33;;;26.90;39.90;;;;;;5013202;28;20058;-70
2023/10/13 11:13:13;;;;;;;2.60;1.63;;;27.00;40.70;;;;;;5026109;28;20053;-68
2023/10/13 11:15:46;;;;;;;1.48;1.08;;;27.00;40.00;;;;;;5031006;28;20041;-68
2023/10/13 11:18:20;;;;;;;2.13;1.80;;;27.20;40.40;;;;;;5041620;28;20094;-68
2023/10/13 11:20:53;;;;;;;1.20;1.05;;;27.40;39.40;;;;;;5036007;28;20029;-71
2023/10/13 11:23:25;;;;;;;2.67;1.65;;;27.80;37.80;;;;;;5029609;28;20045;-70
2023/10/13 11:26:11;;;;;;;5.70;2.45;;;27.80;37.90;;;;;;4999896;28;20038;-70
2023/10/13 11:28:38;;;;;;;2.70;1.42;;;27.80;38.30;;;;;;5033670;28;20057;-70
2023/10/13 11:33:50;;;;;;;0.85;0.73;;;27.70;39.90;;;;;;5017670;28;20048;-70
2023/10/13 11:39:01;;;;;;;2.72;1.25;;;27.80;37.80;;;;;;5033448;28;20100;-68
2023/10/13 11:41:38;;;;;;;1.98;1.35;;;27.80;38.40;;;;;;5032692;28;20490;-68
2023/10/13 11:44:23;;;;;;;2.22;1.48;;;27.80;38.50;;;;;;5033285;28;20069;-70
2023/10/13 11:46:56;;;;;;;3.88;1.60;;;27.90;37.70;;;;;;5032951;28;20034;-70
2023/10/13 11:52:02;;;;;;;2.78;1.15;;;28.60;37.30;;;;;;5032486;28;20033;-70
2023/10/13 11:54:29;;;;;;;1.98;1.42;;;29.90;34.10;;;;;;5053331;28;20124;-70
2023/10/13 11:57:01;;;;;;;3.13;2.17;;;30.10;35.10;;;;;;5018166;28;20038;-70
2023/10/13 11:59:28;;;;;;;2.40;1.60;;;31.10;33.60;;;;;;5053829;28;20423;-70
2023/10/13 12:04:57;;;;;;;4.18;1.77;;;33.50;28.10;;;;;;5017376;28;20520;-70
2023/10/13 12:10:15;;;;;;;4.82;1.80;;;34.60;24.70;;;;;;5036257;28;20052;-70
2023/10/13 12:12:43;;;;;;;2.70;1.92;;;33.80;26.50;;;;;;5023802;28;20048;-70
2023/10/13 12:15:13;;;;;;;1.92;1.55;;;34.60;26.30;;;;;;5013971;28;20033;-70
2023/10/13 12:17:39;;;;;;;2.75;1.40;;;33.80;25.70;;;;;;5032533;28;20029;-70
2023/10/13 12:20:33;;;;;;;2.95;2.22;;;33.60;26.60;;;;;;5014282;28;20079;-71
2023/10/13 12:23:09;;;;;;;1.65;1.00;;;32.90;27.10;;;;;;5032079;28;20120;-70
2023/10/13 12:25:59;;;;;;;;;;;32.90;26.70;;;;;;5016295;28;20037;-71
2023/10/13 12:28:26;;;;;;;1.58;0.77;;;34.00;26.40;;;;;;5032423;28;19917;-70
2023/10/13 12:30:57;;;;;;;1.75;1.23;;;35.00;24.70;;;;;;5031226;28;20041;-70
2023/10/13 12:33:25;;;;;;;1.58;1.00;;;35.40;24.80;;;;;;5014842;28;20037;-69
2023/10/13 12:52:05;;;;;;;1.43;0.90;;;42.00;17.90;;;;;;5014800;28;20069;-70
2023/10/13 12:54:38;;;;;;;3.83;1.50;;;42.00;18.00;;;;;;5014435;28;20029;-70
2023/10/13 12:57:09;;;;;;;1.70;0.75;;;42.20;17.80;;;;;;5031754;28;20025;-70
2023/10/13 12:59:35;;;;;;;1.60;1.45;;;42.40;17.00;;;;;;5031475;28;20394;-70
2023/10/13 13:02:07;;;;;;;2.70;1.67;;;42.60;16.80;;;;;;5030895;28;20049;-70
2023/10/13 13:04:36;;;;;;;2.90;1.40;;;42.80;16.80;;;;;;5015032;28;20041;-70
2023/10/13 13:07:04;;;;;;;1.17;0.90;;;42.80;16.80;;;;;;5032496;28;20025;-71
2023/10/13 13:09:30;;;;;;;3.05;2.03;;;43.10;17.10;;;;;;5036068;28;20383;-70
2023/10/13 13:11:57;;;;;;;3.88;1.88;;;43.50;16.60;;;;;;5016572;28;20045;-70
2023/10/13 13:14:30;;;;;;;3.13;1.42;;;43.70;16.30;;;;;;5024212;28;20037;-70
2023/10/13 13:17:06;;;;;;;2.35;1.40;;;43.80;15.80;;;;;;5027502;28;20406;-70
2023/10/13 13:19:51;;;;;;;1.63;1.35;;;44.10;16.10;;;;;;5049514;28;20116;-70
2023/10/13 13:22:17;;;;;;;3.78;1.98;;;44.00;16.00;;;;;;5055278;28;20570;-70
2023/10/13 13:24:45;;;;;;;3.83;2.38;;;44.10;15.90;;;;;;5055865;28;20420;-70
2023/10/13 13:27:30;;;;;;;1.58;1.02;;;43.90;15.80;;;;;;5027519;28;20390;-70
2023/10/13 13:29:56;;;;;;;2.65;1.95;;;43.80;15.80;;;;;;5036318;28;20045;-70
2023/10/13 13:35:08;;;;;;;2.45;2.03;;;43.90;15.60;;;;;;5039599;28;20103;-71
2023/10/13 13:37:37;;;;;;;1.63;1.27;;;43.80;15.80;;;;;;5037957;28;20033;-70
2023/10/13 13:40:22;;;;;;;8.13;1.40;;;43.80;15.90;;;;;;5054266;28;20041;-70
2023/10/13 13:42:48;;;;;;;1.87;1.67;;;43.60;16.00;;;;;;5055387;28;20124;-70
2023/10/13 13:45:34;;;;;;;1.75;0.98;;;43.50;16.10;;;;;;5036307;28;20037;-70
2023/10/13 13:48:07;;;;;;;;;;;43.50;16.00;;;;;;5036363;28;20091;-70
2023/10/13 13:50:39;;;;;;;3.70;2.35;;;43.60;15.70;;;;;;5018123;28;19924;-70
2023/10/13 13:53:09;;;;;;;1.95;1.42;;;43.50;16.10;;;;;;5018607;28;20378;-70
2023/10/13 13:55:35;;;;;;;4.43;2.03;;;43.60;15.60;;;;;;5034999;28;20036;-70
2023/10/13 13:58:04;;;;;;;2.15;1.55;;;43.50;16.10;;;;;;5017744;28;20044;-70
2023/10/13 14:00:48;;;;;;;2.17;1.55;;;43.60;15.90;;;;;;5034139;28;20042;-70
2023/10/13 14:03:32;;;;;;;1.27;0.75;;;43.70;16.00;;;;;;5035154;28;20051;-70
2023/10/13 14:06:26;;;;;;;1.40;1.10;;;43.40;15.90;;;;;;5019851;28;20082;-70
2023/10/13 14:09:16;;;;;;;2.95;1.88;;;42.70;16.60;;;;;;5018445;28;20038;-70
2023/10/13 14:17:02;;;;;;;4.25;2.40;;;42.30;17.20;;;;;;5034863;28;20037;-69
2023/10/13 14:19:28;;;;;;;1.60;1.40;;;42.20;17.50;;;;;;5013057;28;20046;-69
2023/10/13 14:22:13;;;;;;;2.10;1.20;;;42.20;17.40;;;;;;5027776;28;20133;-70
2023/10/13 14:24:51;;;;;;;2.15;1.20;;;41.90;17.40;;;;;;5035556;28;20049;-70
2023/10/13 14:27:19;;;;;;;2.00;1.15;;;41.70;17.70;;;;;;5018570;28;20033;-70
2023/10/13 14:29:45;;;;;;;4.45;2.38;;;41.30;18.20;;;;;;5017658;28;20453;-70
2023/10/13 14:32:16;;;;;;;1.38;1.08;;;40.90;18.40;;;;;;5016689;28;20038;-70
2023/10/13 14:35:10;;;;;;;2.70;1.85;;;40.60;18.50;;;;;;5016892;28;20405;-70
2023/10/13 14:37:37;;;;;;;2.17;1.58;;;40.40;18.80;;;;;;5013388;28;20030;-69
2023/10/13 14:40:04;;;;;;;13.88;1.67;;;40.30;19.20;;;;;;5000317;28;20471;-70
2023/10/13 14:42:35;;;;;;;6.40;1.40;;;39.90;19.00;;;;;;5015554;28;20528;-70
2023/10/13 14:45:01;;;;;;;2.97;2.28;;;39.70;19.70;;;;;;5032055;28;20045;-69
2023/10/13 14:47:27;;;;;;;3.42;2.30;;;39.40;20.00;;;;;;5015058;28;20033;-70
2023/10/13 14:50:21;;;;;;;2.78;1.50;;;39.30;20.10;;;;;;5034860;28;20068;-70
2023/10/13 14:52:49;;;;;;;2.58;1.95;;;39.20;20.00;;;;;;5032006;28;20089;-70
2023/10/13 14:55:18;;;;;;;1.30;1.00;;;38.80;20.30;;;;;;5015968;28;20395;-70
2023/10/13 14:58:04;;;;;;;0.88;0.77;;;38.70;20.30;;;;;;5017081;28;20025;-69
2023/10/13 15:00:31;;;;;;;3.72;1.75;;;38.50;20.50;;;;;;5015872;28;20053;-69
2023/10/13 15:03:05;;;;;;;2.75;1.40;;;37.90;20.80;;;;;;5033974;28;20316;-70
2023/10/13 15:05:33;;;;;;;2.35;1.45;;;37.70;21.50;;;;;;5016737;28;20056;-70
2023/10/13 15:07:59;;;;;;;4.57;2.05;;;37.40;22.10;;;;;;5034117;28;20037;-70
2023/10/13 15:10:26;;;;;;;1.63;1.02;;;36.70;22.50;;;;;;5011859;28;20137;-70
2023/10/13 15:12:52;;;;;;;2.28;1.40;;;35.60;23.90;;;;;;4996777;28;20065;-70
2023/10/13 15:15:19;;;;;;;3.30;1.83;;;34.50;25.10;;;;;;5014069;28;20026;-70
2023/10/13 15:17:45;;;;;;;2.25;1.75;;;33.60;27.00;;;;;;4996878;28;20088;-70
2023/10/13 15:20:18;;;;;;;2.38;1.67;;;32.90;27.00;;;;;;4995539;28;20030;-71
2023/10/13 15:22:48;;;;;;;2.78;1.83;;;32.40;27.60;;;;;;5012534;28;20160;-70
2023/10/13 15:25:21;;;;;;;2.50;1.85;;;32.10;28.60;;;;;;4998351;28;20083;-69
2023/10/13 15:27:57;;;;;;;2.75;1.13;;;31.70;28.90;;;;;;5033591;28;20288;-69
2023/10/13 15:30:30;;;;;;;;;;;31.30;29.00;;;;;;5014929;28;20493;-70
2023/10/13 15:32:57;;;;;;;3.97;2.47;;;31.00;29.30;;;;;;5033615;28;19971;-70
2023/10/13 15:35:28;;;;;;;3.80;2.25;;;30.70;29.90;;;;;;5015403;28;20045;-70
2023/10/13 15:37:55;;;;;;;3.20;1.30;;;30.40;30.50;;;;;;5031464;28;20034;-69
2023/10/13 15:40:23;;;;;;;1.00;0.85;;;30.00;31.00;;;;;;5013923;28;20435;-70
2023/10/13 15:42:49;;;;;;;3.10;1.92;;;29.80;31.50;;;;;;5030440;28;20034;-70
2023/10/13 15:45:18;;;;;;;1.85;1.00;;;29.50;32.20;;;;;;5032915;28;20105;-70
2023/10/13 15:47:46;;;;;;;4.32;2.22;;;29.20;33.40;;;;;;5015738;28;20026;-70
2023/10/13 15:50:39;;;;;;;2.70;1.90;;;28.80;34.60;;;;;;5030997;28;20272;-70
2023/10/13 15:53:06;;;;;;;2.15;1.55;;;28.50;34.70;;;;;;5015996;28;20041;-70
2023/10/13 15:55:51;;;;;;;4.68;1.83;;;28.10;37.40;;;;;;5032445;28;20057;-70
2023/10/13 15:58:17;;;;;;;3.85;1.90;;;27.80;37.90;;;;;;5015580;28;20079;-70
2023/10/13 16:00:44;;;;;;;3.83;2.35;;;27.50;39.20;;;;;;5014212;28;20026;-70
2023/10/13 16:03:11;;;;;;;3.45;1.23;;;27.30;38.80;;;;;;5032625;28;20041;-70
2023/10/13 16:05:40;;;;;;;2.65;1.55;;;27.20;39.10;;;;;;5015084;28;20029;-70
2023/10/13 16:08:10;;;;;;;2.58;1.65;;;27.00;39.30;;;;;;5015627;28;20087;-70
2023/10/13 16:10:38;;;;;;;5.43;1.83;;;26.70;38.60;;;;;;5003792;28;20494;-71
2023/10/13 16:13:07;;;;;;;2.15;1.48;;;26.60;39.40;;;;;;4995697;28;20042;-71
2023/10/13 16:15:42;;;;;;;2.05;1.20;;;26.40;39.80;;;;;;5011308;28;20025;-70
2023/10/13 16:18:09;;;;;;;7.32;3.20;;;26.30;40.90;;;;;;5010790;28;20042;-69
2023/10/13 16:20:54;;;;;;;3.65;2.42;;;26.10;40.90;;;;;;5024461;28;20398;-71
2023/10/13 16:23:20;;;;;;;1.88;1.30;;;26.00;41.60;;;;;;5014552;28;20045;-71
2023/10/13 16:25:47;;;;;;;2.67;1.35;;;25.80;42.60;;;;;;5031967;28;20116;-68
2023/10/13 16:28:13;;;;;;;2.88;2.13;;;25.70;44.50;;;;;;5032850;28;20116;-68
2023/10/13 16:30:39;;;;;;;2.58;1.75;;;25.40;45.60;;;;;;5031731;28;20056;-70
2023/10/13 16:33:05;;;;;;;3.63;2.13;;;25.20;46.60;;;;;;5032269;28;20033;-71
2023/10/13 16:35:34;;;;;;;3.60;2.10;;;25.00;47.40;;;;;;5014564;28;20466;-68
2023/10/13 16:38:06;;;;;;;9.23;3.30;;;24.80;48.30;;;;;;5015654;28;20526;-71
2023/10/13 16:40:32;;;;;;;7.45;1.98;;;24.60;49.10;;;;;;4998369;28;20103;-70
2023/10/13 16:43:00;;;;;;;2.30;1.42;;;24.50;49.90;;;;;;5031674;28;20044;-69
2023/10/13 16:45:31;;;;;;;3.85;2.40;;;24.30;50.30;;;;;;5013875;28;20542;-68
2023/10/13 16:47:57;;;;;;;8.32;3.67;;;24.20;50.60;;;;;;5032612;28;20041;-70
2023/10/13 16:50:23;;;;;;;3.00;1.58;;;24.10;51.20;;;;;;5031292;28;20100;-70
2023/10/13 16:52:49;;;;;;;3.97;2.05;;;23.90;52.00;;;;;;5014866;28;20092;-68
2023/10/13 16:55:20;;;;;;;14.48;2.47;;;23.90;52.20;;;;;;5031517;28;20037;-68
2023/10/13 16:57:50;;;;;;;5.63;3.55;;;23.60;52.60;;;;;;5030776;28;20040;-70
2023/10/13 17:00:25;;;;;;;3.65;3.33;;;23.50;53.20;;;;;;5014225;28;20461;-70
2023/10/13 17:03:11;;;;;;;5.57;3.25;;;23.40;53.60;;;;;;5032303;28;20045;-70
2023/10/13 17:06:00;;;;;;;3.55;2.53;;;23.30;53.70;;;;;;5031839;28;20026;-70
2023/10/13 17:08:45;;;;;;;6.32;3.28;;;23.30;53.90;;;;;;5032354;28;20387;-68
2023/10/13 17:11:13;;;;;;;8.40;4.45;;;23.10;54.80;;;;;;5031395;28;20460;-71
2023/10/13 17:13:43;;;;;;;5.22;3.83;;;23.00;53.60;;;;;;5014394;28;20090;-68
2023/10/13 17:16:22;;;;;;;4.95;3.20;;;22.70;54.60;;;;;;5031360;28;20526;-70